Terminal Aerodrome Forecast
Issued by NWS

Home | Current Version | Previous Version | Text Only | Print | Product List | Glossary On
Versions: 1 2 3 4 5 6 7 8 9 10 11 12
556
FTUS45 KVEF 272320
TAFDAG
TAF
KDAG 272320Z 2800/2824 VRB06KT P6SM FEW250
     FM280100 25012KT P6SM FEW250
     FM281200 28010KT P6SM FEW250
     FM282000 VRB06KT P6SM FEW250=

USA.gov is the U.S. government's official web portal to all federal, state and local government web resources and services.